Kugluktuk, Canada
Current Conditions -  °F | °C
As of 3:00 PM on Monday 22 Dec 2014 (Local Time) from CYCO Reporting Station
Ice Pellets Ice Pellets  
Wind Chill: -37°   Ceiling: Unl
Heat Index: -17°   Visibility: 15mi
Dew Point: -22°   Wind: 10mph
Humidity: 76%   Direction: 350°N
Pressure: 30.2"   Gusts: NA
Location:  67.83°N, 115.08°W
Report Text: CYCO 222200Z 35009KT 15SM IC VCSH FEW080 FEW160 SCT240 M27/M30 A3020 RMK AC1AC1CS1 VIS SE 6 SLP231
Loading
Personal Weather Stations






























Interactive Weather Map New forecast layout! Learn more

10-Day Weather Forecast

Advertisements
Track Severe Weather on mobile